Time;durP1;ratioP1;P1;durP2;ratioP2;P2;SDS_P1;SDS_P2;PMS_P1;PMS_P2;Temp;Humidity;BMP_temperature;BMP_pressure;BME280_temperature;BME280_humidity;BME280_pressure;Samples;Min_cycle;Max_cycle;Signal;HPM_P1;HPM_P2
2022/04/30 00:02:02;;;;;;;57.77;2.60;;;;;;;;;;5094538;28;20468;-73
2022/04/30 00:04:29;;;;;;;57.73;2.53;;;;;;;;;;5094134;28;20542;-73
2022/04/30 00:06:56;;;;;;;58.10;2.60;;;;;;;;;;5094075;28;20474;-73
2022/04/30 00:09:23;;;;;;;57.77;2.70;;;;;;;;;;5094108;28;20829;-73
2022/04/30 00:11:51;;;;;;;58.10;2.70;;;;;;;;;;5094098;28;21014;-69
2022/04/30 00:14:19;;;;;;;58.07;2.60;;;;;;;;;;5093668;28;20446;-72
2022/04/30 00:16:46;;;;;;;58.27;3.47;;;;;;;;;;5093851;28;20537;-73
2022/04/30 00:19:13;;;;;;;58.60;4.30;;;;;;;;;;5089787;28;20496;-73
2022/04/30 00:21:40;;;;;;;58.37;3.53;;;;;;;;;;5093727;28;20533;-73
2022/04/30 00:24:08;;;;;;;58.17;3.27;;;;;;;;;;5093783;28;20890;-74
2022/04/30 00:26:35;;;;;;;57.97;2.60;;;;;;;;;;5094081;28;20478;-72
2022/04/30 00:29:03;;;;;;;57.87;2.50;;;;;;;;;;5093394;28;20481;-73
2022/04/30 00:31:31;;;;;;;58.07;3.00;;;;;;;;;;5093921;28;20541;-73
2022/04/30 00:33:58;;;;;;;57.97;2.90;;;;;;;;;;5093419;28;20528;-73
2022/04/30 00:36:25;;;;;;;58.07;2.50;;;;;;;;;;5093409;28;20458;-73
2022/04/30 00:38:52;;;;;;;57.97;2.50;;;;;;;;;;5092610;28;20517;-73
2022/04/30 00:41:21;;;;;;;58.03;2.90;;;;;;;;;;5093547;28;20529;-73
2022/04/30 00:43:49;;;;;;;57.97;2.70;;;;;;;;;;5093338;28;20859;-74
2022/04/30 00:46:18;;;;;;;57.90;2.43;;;;;;;;;;5093630;28;20467;-73
2022/04/30 00:48:46;;;;;;;57.93;2.30;;;;;;;;;;5092676;28;20858;-73
2022/04/30 00:51:13;;;;;;;58.30;3.00;;;;;;;;;;5075818;28;20454;-73
2022/04/30 00:53:41;;;;;;;58.00;2.70;;;;;;;;;;5072941;28;20450;-73
2022/04/30 00:56:10;;;;;;;58.20;2.80;;;;;;;;;;5072936;28;20457;-73
2022/04/30 00:58:39;;;;;;;58.13;2.80;;;;;;;;;;5071964;28;20483;-73
2022/04/30 01:01:07;;;;;;;58.30;3.57;;;;;;;;;;5072245;28;20533;-73
2022/04/30 01:03:36;;;;;;;57.87;3.00;;;;;;;;;;5072954;28;20474;-73
2022/04/30 01:06:04;;;;;;;57.87;2.50;;;;;;;;;;5072836;28;20985;-72
2022/04/30 01:08:31;;;;;;;58.83;3.80;;;;;;;;;;5072350;28;20443;-73
2022/04/30 01:11:01;;;;;;;58.17;2.47;;;;;;;;;;5072934;28;20457;-73
2022/04/30 01:13:28;;;;;;;57.87;2.60;;;;;;;;;;5072572;28;20454;-73
2022/04/30 01:15:58;;;;;;;57.87;2.73;;;;;;;;;;5072540;28;20657;-73
2022/04/30 01:18:25;;;;;;;57.80;2.60;;;;;;;;;;5072002;28;20841;-73
2022/04/30 01:20:55;;;;;;;57.87;2.50;;;;;;;;;;5072622;28;20482;-73
2022/04/30 01:23:26;;;;;;;58.60;3.90;;;;;;;;;;5086546;28;20451;-73
2022/04/30 01:25:54;;;;;;;58.13;2.53;;;;;;;;;;5092685;28;20811;-74
2022/04/30 01:28:22;;;;;;;58.60;3.53;;;;;;;;;;5091859;28;20446;-74
2022/04/30 01:30:49;;;;;;;58.03;2.70;;;;;;;;;;5092742;28;20473;-73
2022/04/30 01:38:47;;;;;;;58.03;2.70;;;;;;;;;;5091527;28;20528;-72
2022/04/30 01:41:14;;;;;;;58.37;2.97;;;;;;;;;;5092381;28;20845;-72
2022/04/30 01:43:42;;;;;;;57.87;2.70;;;;;;;;;;5092140;28;20450;-74
2022/04/30 01:46:10;;;;;;;58.17;2.70;;;;;;;;;;5085782;28;20468;-75
2022/04/30 01:48:38;;;;;;;59.20;3.40;;;;;;;;;;5071111;28;20485;-72
2022/04/30 01:51:05;;;;;;;57.87;2.73;;;;;;;;;;5072651;28;20447;-73
2022/04/30 01:53:32;;;;;;;57.97;2.60;;;;;;;;;;5075066;28;20453;-74
2022/04/30 01:56:00;;;;;;;58.60;3.67;;;;;;;;;;5091625;28;20557;-72
2022/04/30 01:58:30;;;;;;;58.10;2.80;;;;;;;;;;5090365;28;20480;-73
2022/04/30 02:00:57;;;;;;;58.80;3.80;;;;;;;;;;5092110;28;20517;-72
2022/04/30 02:03:24;;;;;;;58.03;2.63;;;;;;;;;;5091932;28;20540;-73
2022/04/30 02:05:52;;;;;;;58.10;2.47;;;;;;;;;;5091842;28;20903;-72
2022/04/30 02:08:20;;;;;;;57.90;2.60;;;;;;;;;;5091534;28;20505;-73
2022/04/30 02:10:48;;;;;;;58.50;3.67;;;;;;;;;;5092176;28;20971;-72
2022/04/30 02:13:18;;;;;;;57.83;2.47;;;;;;;;;;5092246;28;20533;-73
2022/04/30 02:15:45;;;;;;;58.00;2.70;;;;;;;;;;5092107;28;20446;-73
2022/04/30 02:18:13;;;;;;;57.87;2.70;;;;;;;;;;5091488;28;20454;-73
2022/04/30 02:20:42;;;;;;;58.20;3.10;;;;;;;;;;5091695;28;20844;-73
2022/04/30 02:23:09;;;;;;;57.87;2.80;;;;;;;;;;5092141;28;20449;-74
2022/04/30 02:25:37;;;;;;;57.83;2.50;;;;;;;;;;5088747;28;20935;-74
2022/04/30 02:28:05;;;;;;;57.80;2.70;;;;;;;;;;5090685;28;20450;-72
2022/04/30 02:30:35;;;;;;;58.90;4.27;;;;;;;;;;5091901;28;20545;-72
2022/04/30 02:33:05;;;;;;;57.83;2.50;;;;;;;;;;5092013;28;20454;-72
2022/04/30 02:35:34;;;;;;;58.03;2.70;;;;;;;;;;5090944;28;20893;-72
2022/04/30 02:38:02;;;;;;;57.83;2.60;;;;;;;;;;5090577;28;20467;-73
2022/04/30 02:40:32;;;;;;;57.83;2.57;;;;;;;;;;5091418;28;20580;-72
2022/04/30 02:43:03;;;;;;;57.97;2.57;;;;;;;;;;5091550;28;20469;-72
2022/04/30 02:45:30;;;;;;;57.97;2.63;;;;;;;;;;5091942;28;20537;-72
2022/04/30 02:47:58;;;;;;;57.97;2.43;;;;;;;;;;5090409;28;20450;-72
2022/04/30 02:50:25;;;;;;;58.50;3.73;;;;;;;;;;5091615;28;20469;-73
2022/04/30 02:52:54;;;;;;;57.77;2.67;;;;;;;;;;5091535;28;20488;-72
2022/04/30 02:55:21;;;;;;;58.27;3.67;;;;;;;;;;5091156;28;20505;-74
2022/04/30 03:00:37;;;;;;;57.83;2.57;;;;;;;;;;5091054;28;20477;-72
2022/04/30 03:03:06;;;;;;;57.77;2.90;;;;;;;;;;5091117;28;20504;-73
2022/04/30 03:05:34;;;;;;;57.73;2.60;;;;;;;;;;5091608;28;20449;-74
2022/04/30 03:08:02;;;;;;;58.27;2.70;;;;;;;;;;5090407;28;20458;-73
2022/04/30 03:10:29;;;;;;;58.37;2.83;;;;;;;;;;5092087;28;20553;-72
2022/04/30 03:12:56;;;;;;;58.13;2.60;;;;;;;;;;5095522;28;20441;-72
2022/04/30 03:15:25;;;;;;;58.07;2.80;;;;;;;;;;5094863;28;20531;-72
2022/04/30 03:23:23;;;;;;;58.10;2.80;;;;;;;;;;5095151;28;20899;-73
2022/04/30 03:25:50;;;;;;;58.10;2.57;;;;;;;;;;5095217;28;20675;-72
2022/04/30 03:28:17;;;;;;;58.17;2.70;;;;;;;;;;5093221;28;20484;-73
2022/04/30 03:30:46;;;;;;;58.20;3.00;;;;;;;;;;5091856;28;20469;-74
2022/04/30 03:33:13;;;;;;;58.17;2.70;;;;;;;;;;5094973;28;21079;-73
2022/04/30 03:35:42;;;;;;;58.20;2.70;;;;;;;;;;5094466;28;20461;-73
2022/04/30 03:38:09;;;;;;;58.03;3.30;;;;;;;;;;5093786;28;20454;-73
2022/04/30 03:40:38;;;;;;;58.03;2.80;;;;;;;;;;5094087;28;20481;-72
2022/04/30 03:43:06;;;;;;;58.07;2.80;;;;;;;;;;5094596;28;20537;-73
2022/04/30 03:45:33;;;;;;;58.20;3.13;;;;;;;;;;5095010;28;20914;-73
2022/04/30 03:48:00;;;;;;;58.10;2.77;;;;;;;;;;5093888;28;20450;-72
2022/04/30 03:50:27;;;;;;;57.97;2.77;;;;;;;;;;5094899;28;20467;-73
2022/04/30 03:52:56;;;;;;;58.07;3.27;;;;;;;;;;5094647;28;20461;-73
2022/04/30 03:55:23;;;;;;;58.10;2.60;;;;;;;;;;5094202;28;20580;-74
2022/04/30 03:57:50;;;;;;;58.50;3.70;;;;;;;;;;5093515;28;20465;-72
2022/04/30 04:00:18;;;;;;;58.03;2.90;;;;;;;;;;5093386;28;20500;-73
2022/04/30 04:02:46;;;;;;;57.77;2.53;;;;;;;;;;5091383;28;20466;-73
2022/04/30 04:05:13;;;;;;;58.17;3.20;;;;;;;;;;5094222;28;20472;-73
2022/04/30 04:07:41;;;;;;;58.20;3.00;;;;;;;;;;5093398;28;20446;-73
2022/04/30 04:10:10;;;;;;;58.37;3.93;;;;;;;;;;5094305;28;20475;-72
2022/04/30 04:12:37;;;;;;;57.83;2.60;;;;;;;;;;5094326;28;20454;-73
2022/04/30 04:17:49;;;;;;;58.03;2.83;;;;;;;;;;5093048;28;20456;-72
2022/04/30 04:20:17;;;;;;;58.07;2.60;;;;;;;;;;5093552;28;20496;-72
2022/04/30 04:22:45;;;;;;;58.03;2.80;;;;;;;;;;5093448;28;20820;-73
2022/04/30 04:27:58;;;;;;;58.27;3.33;;;;;;;;;;5093092;28;20480;-73
2022/04/30 04:30:27;;;;;;;57.87;2.80;;;;;;;;;;5094431;28;20823;-73
2022/04/30 04:32:54;;;;;;;58.40;3.43;;;;;;;;;;5093273;28;20452;-74
2022/04/30 04:35:22;;;;;;;57.73;2.60;;;;;;;;;;5073725;28;20828;-74
2022/04/30 04:37:49;;;;;;;57.73;2.60;;;;;;;;;;5072572;28;20558;-74
2022/04/30 04:40:18;;;;;;;58.20;2.90;;;;;;;;;;5072914;28;20528;-74
2022/04/30 04:42:46;;;;;;;57.83;2.53;;;;;;;;;;5073108;28;20451;-74
2022/04/30 04:45:13;;;;;;;58.10;2.80;;;;;;;;;;5072979;28;20950;-73
2022/04/30 04:47:41;;;;;;;57.87;2.53;;;;;;;;;;5072534;28;20443;-74
2022/04/30 04:50:10;;;;;;;57.93;2.83;;;;;;;;;;5073157;28;20474;-74
2022/04/30 04:52:37;;;;;;;58.80;4.00;;;;;;;;;;5073397;28;20883;-74
2022/04/30 04:55:05;;;;;;;58.40;3.30;;;;;;;;;;5073395;28;20453;-74
2022/04/30 04:57:33;;;;;;;57.90;2.60;;;;;;;;;;5072453;28;20450;-73
2022/04/30 05:00:01;;;;;;;58.40;3.83;;;;;;;;;;5072801;28;20496;-75
2022/04/30 05:02:28;;;;;;;58.20;2.90;;;;;;;;;;5072587;28;21031;-74
2022/04/30 05:04:55;;;;;;;58.00;3.00;;;;;;;;;;5071804;28;20534;-75
2022/04/30 05:07:22;;;;;;;57.77;2.50;;;;;;;;;;5092114;28;20482;-73
2022/04/30 05:09:49;;;;;;;58.07;2.70;;;;;;;;;;5093288;28;20902;-74
2022/04/30 05:12:16;;;;;;;57.93;2.60;;;;;;;;;;5092951;28;20537;-74
2022/04/30 05:14:46;;;;;;;57.87;2.60;;;;;;;;;;5093201;28;20540;-74
2022/04/30 05:17:14;;;;;;;58.00;2.80;;;;;;;;;;5092381;28;20454;-74
2022/04/30 05:19:41;;;;;;;57.77;2.83;;;;;;;;;;5092995;28;20485;-73
2022/04/30 05:22:08;;;;;;;58.03;2.60;;;;;;;;;;5093069;28;20529;-74
2022/04/30 05:24:35;;;;;;;57.90;2.63;;;;;;;;;;5092994;28;20542;-75
2022/04/30 05:27:02;;;;;;;57.83;3.00;;;;;;;;;;5092823;28;20455;-74
2022/04/30 05:29:29;;;;;;;57.93;2.90;;;;;;;;;;5092527;28;20557;-74
2022/04/30 05:31:58;;;;;;;57.97;2.80;;;;;;;;;;5092951;28;20536;-74
2022/04/30 05:34:25;;;;;;;57.77;2.40;;;;;;;;;;5092051;28;20534;-73
2022/04/30 05:36:52;;;;;;;57.73;2.60;;;;;;;;;;5092447;28;20536;-75
2022/04/30 05:39:19;;;;;;;57.80;2.50;;;;;;;;;;5089124;28;20473;-75
2022/04/30 05:41:47;;;;;;;57.97;2.80;;;;;;;;;;5092132;28;20792;-75
2022/04/30 05:44:14;;;;;;;58.07;2.77;;;;;;;;;;5091907;28;20454;-74
2022/04/30 05:46:41;;;;;;;57.97;2.50;;;;;;;;;;5092090;28;20533;-75
2022/04/30 05:49:10;;;;;;;58.67;3.50;;;;;;;;;;5091775;28;20846;-73
2022/04/30 05:51:37;;;;;;;57.77;2.63;;;;;;;;;;5092389;28;20943;-73
2022/04/30 05:54:04;;;;;;;57.93;2.90;;;;;;;;;;5092196;28;20442;-74
2022/04/30 05:56:31;;;;;;;58.60;3.80;;;;;;;;;;5092418;28;20446;-73
2022/04/30 05:58:58;;;;;;;58.07;2.80;;;;;;;;;;5091333;28;20477;-73
2022/04/30 06:01:26;;;;;;;57.97;2.80;;;;;;;;;;5091451;28;21040;-73
2022/04/30 06:03:53;;;;;;;58.10;3.00;;;;;;;;;;5091418;28;20443;-73
2022/04/30 06:06:22;;;;;;;57.93;3.00;;;;;;;;;;5091672;28;20511;-73
2022/04/30 06:08:49;;;;;;;57.93;2.60;;;;;;;;;;5087459;28;20493;-73
2022/04/30 06:11:16;;;;;;;57.80;2.70;;;;;;;;;;5092186;28;20454;-73
2022/04/30 06:13:43;;;;;;;57.93;2.70;;;;;;;;;;5092092;28;20446;-73
2022/04/30 06:16:10;;;;;;;57.73;2.60;;;;;;;;;;5092235;28;20453;-74
2022/04/30 06:18:38;;;;;;;57.77;2.40;;;;;;;;;;5086973;28;20450;-73
2022/04/30 06:21:05;;;;;;;57.90;2.87;;;;;;;;;;5070764;28;20835;-73
2022/04/30 06:23:33;;;;;;;58.30;3.97;;;;;;;;;;5071048;28;20836;-73
2022/04/30 06:26:01;;;;;;;57.97;2.60;;;;;;;;;;5071205;28;20899;-73
2022/04/30 06:28:28;;;;;;;57.97;3.00;;;;;;;;;;5070829;28;20546;-74
2022/04/30 06:30:55;;;;;;;57.93;3.07;;;;;;;;;;5072113;28;20539;-74
2022/04/30 06:33:22;;;;;;;58.00;2.70;;;;;;;;;;5071666;28;20944;-74
2022/04/30 06:35:50;;;;;;;58.00;3.30;;;;;;;;;;5071480;28;20827;-74
2022/04/30 06:38:18;;;;;;;58.30;3.40;;;;;;;;;;5070914;28;20457;-74
2022/04/30 06:40:47;;;;;;;57.97;3.07;;;;;;;;;;5070249;28;20490;-74
2022/04/30 06:43:15;;;;;;;57.90;2.70;;;;;;;;;;5068996;28;20486;-74
2022/04/30 06:45:42;;;;;;;58.03;2.97;;;;;;;;;;5070331;28;20883;-74
2022/04/30 06:48:10;;;;;;;57.47;2.50;;;;;;;;;;5069847;28;20890;-74
2022/04/30 06:50:37;;;;;;;57.63;2.50;;;;;;;;;;5071307;28;20467;-74
2022/04/30 06:58:44;;;;;;;57.97;2.60;;;;;;;;;;5070182;28;20423;-73
2022/04/30 07:01:30;;;;;;;57.80;2.50;;;;;;;;;;5071107;28;21660;-73
2022/04/30 07:04:04;;;;;;;57.87;2.50;;;;;;;;;;5085590;28;20487;-74
2022/04/30 07:06:31;;;;;;;57.77;2.90;;;;;;;;;;5091729;28;20446;-74
2022/04/30 07:08:58;;;;;;;58.60;4.20;;;;;;;;;;5086839;28;20847;-74
2022/04/30 07:11:27;;;;;;;57.83;2.97;;;;;;;;;;5090427;28;20456;-74
2022/04/30 07:13:54;;;;;;;58.03;2.70;;;;;;;;;;5090393;28;20462;-74
2022/04/30 07:16:21;;;;;;;58.10;2.80;;;;;;;;;;5090657;28;20541;-74
2022/04/30 07:18:48;;;;;;;57.77;2.50;;;;;;;;;;5089566;28;20499;-74
2022/04/30 07:21:16;;;;;;;58.07;2.70;;;;;;;;;;5090746;28;20569;-74
2022/04/30 07:23:43;;;;;;;57.73;3.00;;;;;;;;;;5090733;28;20780;-74
2022/04/30 07:26:10;;;;;;;58.07;2.70;;;;;;;;;;5091261;28;20446;-74
2022/04/30 07:28:38;;;;;;;57.90;2.60;;;;;;;;;;5090001;28;20450;-72
2022/04/30 07:31:06;;;;;;;57.77;2.90;;;;;;;;;;5104338;28;20988;-73
2022/04/30 07:33:33;;;;;;;57.90;2.70;;;;;;;;;;5091053;28;20462;-74
2022/04/30 07:36:00;;;;;;;57.87;2.60;;;;;;;;;;5090930;28;20449;-73
2022/04/30 07:38:28;;;;;;;58.00;3.27;;;;;;;;;;5089633;28;20943;-73
2022/04/30 07:40:55;;;;;;;57.77;2.60;;;;;;;;;;5077308;28;20590;-74
2022/04/30 07:43:22;;;;;;;57.67;2.53;;;;;;;;;;5069689;28;20493;-72
2022/04/30 07:45:51;;;;;;;57.87;2.60;;;;;;;;;;5070092;28;20455;-73
2022/04/30 07:48:18;;;;;;;57.67;2.50;;;;;;;;;;5069634;28;20458;-73
2022/04/30 07:50:45;;;;;;;57.87;2.50;;;;;;;;;;5069572;28;20710;-73
2022/04/30 07:53:14;;;;;;;57.67;2.60;;;;;;;;;;5070387;28;20633;-73
2022/04/30 07:55:42;;;;;;;57.73;2.60;;;;;;;;;;5070819;28;20829;-73
2022/04/30 07:58:09;;;;;;;57.87;2.70;;;;;;;;;;5072901;28;20505;-72
2022/04/30 08:00:36;;;;;;;58.00;3.10;;;;;;;;;;5073549;28;20486;-72
2022/04/30 08:03:05;;;;;;;57.83;2.80;;;;;;;;;;5073575;28;20455;-73
2022/04/30 08:05:32;;;;;;;57.77;2.60;;;;;;;;;;5073723;28;20452;-72
2022/04/30 08:07:59;;;;;;;57.77;2.70;;;;;;;;;;5073819;28;20447;-73
2022/04/30 08:10:26;;;;;;;58.30;4.03;;;;;;;;;;5072341;28;20550;-73
2022/04/30 08:12:54;;;;;;;58.00;2.80;;;;;;;;;;5070586;28;20451;-72
2022/04/30 08:15:22;;;;;;;58.00;2.50;;;;;;;;;;5073667;28;20462;-73
2022/04/30 08:17:49;;;;;;;57.70;2.50;;;;;;;;;;5073017;28;20486;-72
2022/04/30 08:20:17;;;;;;;57.67;2.70;;;;;;;;;;5073954;28;20467;-73
2022/04/30 08:22:44;;;;;;;58.10;3.20;;;;;;;;;;5073393;28;20947;-73
2022/04/30 08:25:12;;;;;;;57.80;2.77;;;;;;;;;;5073273;28;20544;-73
2022/04/30 08:27:40;;;;;;;57.83;3.17;;;;;;;;;;5073152;28;20456;-73
2022/04/30 08:30:09;;;;;;;57.57;2.90;;;;;;;;;;5073710;28;20886;-73
2022/04/30 08:32:37;;;;;;;58.00;3.43;;;;;;;;;;5073441;28;20528;-73
2022/04/30 08:35:04;;;;;;;57.57;2.43;;;;;;;;;;5073420;28;20455;-73
2022/04/30 08:37:33;;;;;;;57.57;2.50;;;;;;;;;;5072950;28;20530;-73
2022/04/30 08:40:00;;;;;;;57.77;2.50;;;;;;;;;;5073676;28;20920;-73
2022/04/30 08:42:28;;;;;;;57.77;2.70;;;;;;;;;;5072279;28;20485;-73
2022/04/30 08:44:56;;;;;;;57.87;3.40;;;;;;;;;;5089110;28;20455;-73
2022/04/30 08:47:23;;;;;;;57.67;2.70;;;;;;;;;;5092761;28;20968;-73
2022/04/30 08:49:50;;;;;;;57.90;2.50;;;;;;;;;;5093241;28;20532;-73
2022/04/30 08:52:17;;;;;;;58.27;3.40;;;;;;;;;;5093194;28;20469;-73
2022/04/30 08:54:46;;;;;;;57.93;2.60;;;;;;;;;;5092991;28;20890;-73
2022/04/30 08:57:14;;;;;;;57.87;2.57;;;;;;;;;;5092541;28;21015;-72
2022/04/30 08:59:41;;;;;;;57.83;2.63;;;;;;;;;;5093929;28;20481;-73
2022/04/30 09:02:11;;;;;;;57.97;2.60;;;;;;;;;;5093157;28;20564;-73
2022/04/30 09:04:43;;;;;;;57.77;2.53;;;;;;;;;;5092565;28;20468;-73
2022/04/30 09:07:13;;;;;;;57.73;3.10;;;;;;;;;;5092711;28;20500;-72
2022/04/30 09:09:40;;;;;;;57.77;2.50;;;;;;;;;;5091984;28;20472;-72
2022/04/30 09:12:10;;;;;;;57.90;2.60;;;;;;;;;;5092722;28;20821;-73
2022/04/30 09:14:40;;;;;;;57.73;2.80;;;;;;;;;;5081830;28;20461;-73
2022/04/30 09:17:08;;;;;;;57.77;2.70;;;;;;;;;;5072157;28;20936;-73
2022/04/30 09:19:45;;;;;;;57.87;3.00;;;;;;;;;;5072896;28;20498;-73
2022/04/30 09:22:13;;;;;;;57.87;2.60;;;;;;;;;;5072170;28;20481;-73
2022/04/30 09:24:46;;;;;;;57.73;2.60;;;;;;;;;;5071991;28;20451;-73
2022/04/30 09:27:16;;;;;;;57.73;2.70;;;;;;;;;;5071327;28;20455;-73
2022/04/30 09:29:43;;;;;;;57.77;2.50;;;;;;;;;;5072528;28;20499;-73
2022/04/30 09:32:16;;;;;;;57.73;2.70;;;;;;;;;;5072123;28;20447;-73
2022/04/30 09:37:46;;;;;;;57.87;2.50;;;;;;;;;;5071741;28;20427;-73
2022/04/30 09:40:19;;;;;;;57.57;2.60;;;;;;;;;;5072403;28;21013;-72
2022/04/30 09:42:48;;;;;;;58.17;2.60;;;;;;;;;;5071915;28;20962;-73
2022/04/30 09:45:29;;;;;;;57.77;2.63;;;;;;;;;;5069867;28;20462;-73
2022/04/30 09:47:57;;;;;;;57.67;2.40;;;;;;;;;;5091076;28;20450;-73
2022/04/30 09:55:55;;;;;;;57.93;2.60;;;;;;;;;;5091783;28;20933;-73
2022/04/30 09:58:24;;;;;;;57.90;2.37;;;;;;;;;;5091729;28;20824;-73
2022/04/30 10:00:54;;;;;;;57.67;3.07;;;;;;;;;;5092291;28;20499;-73
2022/04/30 10:03:23;;;;;;;57.93;2.90;;;;;;;;;;5092046;28;20839;-73
2022/04/30 10:05:50;;;;;;;57.87;2.70;;;;;;;;;;5091033;28;20507;-73
2022/04/30 10:08:19;;;;;;;57.97;2.57;;;;;;;;;;5091032;28;20469;-73
2022/04/30 10:10:51;;;;;;;57.70;2.27;;;;;;;;;;5091762;28;21002;-74
2022/04/30 10:13:24;;;;;;;57.50;2.40;;;;;;;;;;5091851;28;20838;-73
2022/04/30 10:15:56;;;;;;;57.77;2.60;;;;;;;;;;5090753;28;20542;-73
2022/04/30 10:18:34;;;;;;;57.80;2.47;;;;;;;;;;5087998;28;20455;-73
2022/04/30 10:21:06;;;;;;;57.77;2.50;;;;;;;;;;5091801;28;20597;-73
2022/04/30 10:23:33;;;;;;;57.80;2.60;;;;;;;;;;5091777;28;20450;-73
2022/04/30 10:26:07;;;;;;;57.77;2.40;;;;;;;;;;5091278;28;20530;-72
2022/04/30 10:28:34;;;;;;;57.67;2.50;;;;;;;;;;5090454;28;20454;-73
2022/04/30 10:31:04;;;;;;;57.57;2.60;;;;;;;;;;5091587;28;20442;-73
2022/04/30 10:33:31;;;;;;;57.53;2.50;;;;;;;;;;5091553;28;20446;-73
2022/04/30 10:36:05;;;;;;;58.00;2.40;;;;;;;;;;5091138;28;20489;-73
2022/04/30 10:38:32;;;;;;;57.67;2.50;;;;;;;;;;5090746;28;20438;-73
2022/04/30 10:41:00;;;;;;;57.70;2.33;;;;;;;;;;5091716;28;20447;-73
2022/04/30 10:43:31;;;;;;;57.77;2.53;;;;;;;;;;5091372;28;20456;-72
2022/04/30 10:45:59;;;;;;;57.67;2.50;;;;;;;;;;5090125;28;20454;-73
2022/04/30 10:48:28;;;;;;;57.83;2.87;;;;;;;;;;5084844;28;21030;-73
2022/04/30 10:51:03;;;;;;;57.77;2.40;;;;;;;;;;5091476;28;20455;-73
2022/04/30 10:53:31;;;;;;;57.90;3.00;;;;;;;;;;5091079;28;20942;-73
2022/04/30 10:55:58;;;;;;;57.83;2.80;;;;;;;;;;5090758;28;20822;-73
2022/04/30 10:58:26;;;;;;;57.87;2.90;;;;;;;;;;5090571;28;20450;-73
2022/04/30 11:00:53;;;;;;;57.87;2.57;;;;;;;;;;5091742;28;20482;-73
2022/04/30 11:03:28;;;;;;;57.57;2.50;;;;;;;;;;5091610;28;20478;-73
2022/04/30 11:05:55;;;;;;;57.83;2.60;;;;;;;;;;5090720;28;20452;-73
2022/04/30 11:08:22;;;;;;;57.93;2.87;;;;;;;;;;5090010;28;20841;-73
2022/04/30 11:10:50;;;;;;;58.00;2.70;;;;;;;;;;5091437;28;20474;-73
2022/04/30 11:13:18;;;;;;;57.67;2.80;;;;;;;;;;5091079;28;20442;-73
2022/04/30 11:15:45;;;;;;;57.87;2.60;;;;;;;;;;5090699;28;20444;-72
2022/04/30 11:18:13;;;;;;;57.53;2.40;;;;;;;;;;5089575;28;20525;-72
2022/04/30 11:20:42;;;;;;;57.90;2.47;;;;;;;;;;5072645;28;20968;-73
2022/04/30 11:23:09;;;;;;;57.87;2.50;;;;;;;;;;5070814;28;20484;-72
2022/04/30 11:25:37;;;;;;;57.77;2.53;;;;;;;;;;5070578;28;20974;-72
2022/04/30 11:28:07;;;;;;;57.90;2.60;;;;;;;;;;5069736;28;20542;-72
2022/04/30 11:30:37;;;;;;;57.63;2.67;;;;;;;;;;5070863;28;20467;-73
2022/04/30 11:33:04;;;;;;;57.90;2.60;;;;;;;;;;5074055;28;20443;-72
2022/04/30 11:35:32;;;;;;;57.67;2.50;;;;;;;;;;5074256;28;20454;-73
2022/04/30 11:38:00;;;;;;;57.57;2.47;;;;;;;;;;5073763;28;20541;-73
2022/04/30 11:40:28;;;;;;;57.73;2.50;;;;;;;;;;5074657;28;20559;-73
2022/04/30 11:42:55;;;;;;;58.00;2.47;;;;;;;;;;5074880;28;20592;-73
2022/04/30 11:45:25;;;;;;;57.67;2.60;;;;;;;;;;5074564;28;20450;-73
2022/04/30 11:47:52;;;;;;;57.77;2.37;;;;;;;;;;5072647;28;20451;-73
2022/04/30 11:50:19;;;;;;;57.67;2.30;;;;;;;;;;5073142;28;20858;-72
2022/04/30 11:52:47;;;;;;;57.53;2.40;;;;;;;;;;5093772;28;20444;-72
2022/04/30 11:55:16;;;;;;;57.73;2.40;;;;;;;;;;5094292;28;20451;-73
2022/04/30 11:57:44;;;;;;;57.57;2.27;;;;;;;;;;5093493;28;20869;-74
2022/04/30 12:00:11;;;;;;;57.67;2.30;;;;;;;;;;5094340;28;20466;-73
2022/04/30 12:02:40;;;;;;;57.67;2.50;;;;;;;;;;5094502;28;20824;-73
2022/04/30 12:05:08;;;;;;;57.90;2.37;;;;;;;;;;5094577;28;20813;-74
2022/04/30 12:07:38;;;;;;;57.67;2.40;;;;;;;;;;5092955;28;20530;-74
2022/04/30 12:10:16;;;;;;;57.90;2.10;;;;;;;;;;5093888;28;20471;-74
2022/04/30 12:12:44;;;;;;;58.17;3.30;;;;;;;;;;5093974;28;20446;-74
2022/04/30 12:15:18;;;;;;;57.80;2.60;;;;;;;;;;5093775;28;20540;-73
2022/04/30 12:17:45;;;;;;;57.73;2.50;;;;;;;;;;5093049;28;20445;-74
2022/04/30 12:25:50;;;;;;;57.73;2.30;;;;;;;;;;5093869;28;20468;-75
2022/04/30 12:28:18;;;;;;;57.60;2.37;;;;;;;;;;5092166;28;20455;-74
2022/04/30 12:30:51;;;;;;;57.63;2.20;;;;;;;;;;5093814;28;21033;-75
2022/04/30 12:33:19;;;;;;;57.87;2.50;;;;;;;;;;5093527;28;20537;-75
2022/04/30 12:35:54;;;;;;;57.77;2.30;;;;;;;;;;5093435;28;20473;-74
2022/04/30 12:38:21;;;;;;;57.57;2.23;;;;;;;;;;5092821;28;20445;-74
2022/04/30 12:40:48;;;;;;;58.50;3.60;;;;;;;;;;5093829;28;20466;-75
2022/04/30 12:43:17;;;;;;;57.67;2.40;;;;;;;;;;5093549;28;20543;-74
2022/04/30 12:45:44;;;;;;;57.70;2.57;;;;;;;;;;5093840;28;20485;-74
2022/04/30 12:48:12;;;;;;;57.67;2.30;;;;;;;;;;5091737;28;20463;-75
2022/04/30 12:50:39;;;;;;;58.07;2.60;;;;;;;;;;5093104;28;20972;-75
2022/04/30 12:53:09;;;;;;;57.83;2.50;;;;;;;;;;5092675;28;20821;-75
2022/04/30 12:55:37;;;;;;;57.77;2.60;;;;;;;;;;5090025;28;20556;-75
2022/04/30 12:58:04;;;;;;;57.80;2.50;;;;;;;;;;5092162;28;20452;-74
2022/04/30 13:00:33;;;;;;;57.70;2.20;;;;;;;;;;5093085;28;20473;-74
2022/04/30 13:03:01;;;;;;;57.87;2.37;;;;;;;;;;5093320;28;20476;-75
2022/04/30 13:05:28;;;;;;;58.00;3.27;;;;;;;;;;5093292;28;20443;-74
2022/04/30 13:07:55;;;;;;;57.77;2.30;;;;;;;;;;5092271;28;20547;-74
2022/04/30 13:13:31;;;;;;;58.00;2.83;;;;;;;;;;5093066;28;20485;-74
2022/04/30 13:16:02;;;;;;;57.73;2.10;;;;;;;;;;5092668;28;20459;-75
2022/04/30 13:18:29;;;;;;;57.77;2.20;;;;;;;;;;5092199;28;20534;-75
2022/04/30 13:20:56;;;;;;;57.83;2.30;;;;;;;;;;5092676;28;21023;-74
2022/04/30 13:23:24;;;;;;;57.87;2.50;;;;;;;;;;5093207;28;20490;-74
2022/04/30 13:25:51;;;;;;;57.73;2.50;;;;;;;;;;5089328;28;20439;-75
2022/04/30 13:28:19;;;;;;;57.83;2.53;;;;;;;;;;5091301;28;20542;-74
2022/04/30 13:30:47;;;;;;;58.03;2.40;;;;;;;;;;5091835;28;20608;-74
2022/04/30 13:33:16;;;;;;;57.67;2.30;;;;;;;;;;5092841;28;20446;-74
2022/04/30 13:35:43;;;;;;;57.73;2.40;;;;;;;;;;5092348;28;20947;-73
2022/04/30 13:38:11;;;;;;;58.00;2.13;;;;;;;;;;5091222;28;20967;-73
2022/04/30 13:40:38;;;;;;;58.03;2.60;;;;;;;;;;5091963;28;20464;-74
2022/04/30 13:43:06;;;;;;;57.97;2.40;;;;;;;;;;5092783;28;20485;-74
2022/04/30 13:45:33;;;;;;;57.97;2.33;;;;;;;;;;5092659;28;20451;-74
2022/04/30 13:48:00;;;;;;;58.20;3.03;;;;;;;;;;5091269;28;20543;-74
2022/04/30 13:50:29;;;;;;;57.77;2.70;;;;;;;;;;5091721;28;20561;-74
2022/04/30 13:52:56;;;;;;;57.57;2.40;;;;;;;;;;5092486;28;20445;-75
2022/04/30 13:55:25;;;;;;;57.83;2.30;;;;;;;;;;5091176;28;20485;-74
2022/04/30 13:57:52;;;;;;;57.83;2.40;;;;;;;;;;5081378;28;20460;-74
2022/04/30 14:00:21;;;;;;;57.80;2.30;;;;;;;;;;5071680;28;21047;-74
2022/04/30 14:02:48;;;;;;;58.00;2.60;;;;;;;;;;5072003;28;21010;-75
2022/04/30 14:05:16;;;;;;;57.80;2.40;;;;;;;;;;5072066;28;20459;-75
2022/04/30 14:07:44;;;;;;;57.73;2.60;;;;;;;;;;5070520;28;21001;-75
2022/04/30 14:10:11;;;;;;;57.87;2.60;;;;;;;;;;5071032;28;20518;-74
2022/04/30 14:12:38;;;;;;;57.87;2.50;;;;;;;;;;5071774;28;20447;-74
2022/04/30 14:15:05;;;;;;;57.80;2.60;;;;;;;;;;5071690;28;20447;-74
2022/04/30 14:20:17;;;;;;;58.00;2.50;;;;;;;;;;5050091;28;20451;-75
2022/04/30 14:22:47;;;;;;;57.83;2.73;;;;;;;;;;5071989;28;20489;-74
2022/04/30 14:25:15;;;;;;;58.07;2.47;;;;;;;;;;5071726;28;20455;-75
2022/04/30 14:27:43;;;;;;;57.87;2.40;;;;;;;;;;5070794;28;20451;-75
2022/04/30 14:30:11;;;;;;;57.97;2.57;;;;;;;;;;5066801;28;20924;-75
2022/04/30 14:32:41;;;;;;;57.77;2.50;;;;;;;;;;5071374;28;20469;-75
2022/04/30 14:35:09;;;;;;;57.77;2.50;;;;;;;;;;5071516;28;20486;-75
2022/04/30 14:37:36;;;;;;;57.90;2.40;;;;;;;;;;5070110;28;20539;-75
2022/04/30 14:40:06;;;;;;;57.77;2.40;;;;;;;;;;5071091;28;20506;-75
2022/04/30 14:42:33;;;;;;;57.77;2.30;;;;;;;;;;5071164;28;20564;-74
2022/04/30 14:45:01;;;;;;;57.87;2.30;;;;;;;;;;5071125;28;20439;-74
2022/04/30 14:47:28;;;;;;;57.77;2.10;;;;;;;;;;5070202;28;20451;-74
2022/04/30 14:49:55;;;;;;;57.47;2.10;;;;;;;;;;5070502;28;20523;-74
2022/04/30 14:52:24;;;;;;;57.73;2.17;;;;;;;;;;5070998;28;20444;-75
2022/04/30 14:54:51;;;;;;;57.47;2.13;;;;;;;;;;5071294;28;20454;-75
2022/04/30 14:57:20;;;;;;;57.67;2.40;;;;;;;;;;5070356;28;20991;-75
2022/04/30 14:59:47;;;;;;;57.60;2.30;;;;;;;;;;5070700;28;20558;-74
2022/04/30 15:02:14;;;;;;;57.80;2.40;;;;;;;;;;5068407;28;21139;-75
2022/04/30 15:04:41;;;;;;;57.47;2.50;;;;;;;;;;5071219;28;20537;-75
2022/04/30 15:07:09;;;;;;;57.57;2.30;;;;;;;;;;5073890;28;20536;-74
2022/04/30 15:09:36;;;;;;;57.47;2.20;;;;;;;;;;5074252;28;20475;-76
2022/04/30 15:12:03;;;;;;;57.57;2.20;;;;;;;;;;5074623;28;20450;-75
2022/04/30 15:14:32;;;;;;;57.60;2.37;;;;;;;;;;5074925;28;20948;-75
2022/04/30 15:16:59;;;;;;;57.73;2.30;;;;;;;;;;5074696;28;20522;-74
2022/04/30 15:19:26;;;;;;;57.67;2.33;;;;;;;;;;5074200;28;20474;-75
2022/04/30 15:21:53;;;;;;;57.87;2.27;;;;;;;;;;5074787;28;20476;-75